Morgan, Colorado
Current Conditions -  °F | °C
As of 11:52 AM on Friday 28 Nov 2014 (Local Time) from KALS Reporting Station
Clear Clear  
Wind Chill: 52°   Ceiling: Unl
Heat Index: 52°   Visibility: 10mi
Dew Point: 15°   Wind: 0mph
Humidity: 23%   Direction: NA
Pressure: 30.17"   Gusts: NA
Location:  37.3121°N, 106.036°W
Report Text: KALS 281852Z AUTO 00000KT 10SM CLR 11/M09 A3017 RMK AO2 SLP207 T01111094
Loading
Personal Weather Stations






























Interactive Weather Map New forecast layout! Learn more

10-Day Weather Forecast

Advertisements
Track Severe Weather on mobile